createdAt,value
2023-05-23T00:01:25.573Z,111.73
2023-05-23T00:05:03.977Z,116.13
2023-05-23T00:08:24.893Z,117.45
2023-05-23T00:11:48.898Z,118.53
2023-05-23T00:15:12.568Z,119.74
2023-05-23T00:18:33.586Z,120.00
2023-05-23T00:22:10.581Z,117.15
2023-05-23T00:25:37.584Z,114.97
2023-05-23T00:28:57.791Z,112.06
2023-05-23T00:32:10.894Z,115.02
2023-05-23T00:35:18.235Z,113.84
2023-05-23T00:38:24.195Z,118.72
2023-05-23T00:41:31.003Z,118.23
2023-05-23T00:44:39.565Z,117.05
2023-05-23T00:47:48.398Z,115.71
2023-05-23T00:51:08.233Z,122.66
2023-05-23T00:54:37.080Z,129.09
2023-05-23T00:58:01.142Z,124.65
2023-05-23T01:01:26.242Z,124.77
2023-05-23T01:04:56.068Z,123.42
2023-05-23T01:08:19.006Z,122.45
2023-05-23T01:11:43.554Z,117.92
2023-05-23T01:15:18.633Z,116.33
2023-05-23T01:18:42.519Z,116.30
2023-05-23T01:21:58.453Z,118.85
2023-05-23T01:25:26.757Z,117.16
2023-05-23T01:28:43.071Z,120.68
2023-05-23T01:32:09.259Z,126.40
2023-05-23T01:35:31.543Z,118.96
2023-05-23T01:38:52.444Z,127.04
2023-05-23T01:42:13.923Z,126.39
2023-05-23T01:45:38.876Z,125.11
2023-05-23T01:48:49.231Z,127.93
2023-05-23T01:51:55.555Z,134.60
2023-05-23T01:55:04.225Z,127.08
2023-05-23T01:58:11.743Z,115.27
2023-05-23T02:01:21.910Z,121.84
2023-05-23T02:04:27.794Z,125.49
2023-05-23T02:07:36.721Z,121.37
2023-05-23T02:10:57.638Z,124.12
2023-05-23T02:14:18.863Z,123.63
2023-05-23T02:17:43.374Z,127.26
2023-05-23T02:21:04.613Z,129.05
2023-05-23T02:24:25.467Z,130.12
2023-05-23T02:27:46.406Z,133.41
2023-05-23T02:31:09.421Z,132.92
2023-05-23T02:34:33.108Z,153.36
2023-05-23T02:37:53.930Z,164.38
2023-05-23T02:41:15.047Z,143.65
2023-05-23T02:44:36.025Z,135.19
2023-05-23T02:47:57.088Z,135.90
2023-05-23T02:51:07.867Z,133.47
2023-05-23T02:54:13.834Z,137.89
2023-05-23T02:57:20.811Z,134.75
2023-05-23T03:00:26.778Z,130.59
2023-05-23T03:03:36.857Z,132.14
2023-05-23T03:06:45.899Z,138.26
2023-05-23T03:09:52.808Z,144.94
2023-05-23T03:12:58.727Z,156.77
2023-05-23T03:16:05.991Z,161.54
2023-05-23T03:19:12.120Z,155.37
2023-05-23T03:22:21.626Z,152.17
2023-05-23T03:25:27.746Z,150.12
2023-05-23T03:28:35.006Z,154.93
2023-05-23T03:31:41.145Z,153.66
2023-05-23T03:34:48.031Z,154.38
2023-05-23T03:37:56.777Z,160.40
2023-05-23T03:41:03.685Z,156.79
2023-05-23T03:44:10.423Z,157.16
2023-05-23T03:47:17.198Z,154.72
2023-05-23T03:50:26.679Z,156.88
2023-05-23T03:53:36.752Z,165.11
2023-05-23T03:56:43.851Z,163.09
2023-05-23T03:59:50.906Z,160.45
2023-05-23T04:02:57.737Z,159.00
2023-05-23T04:06:05.279Z,158.44
2023-05-23T04:09:14.744Z,158.17
2023-05-23T04:12:24.596Z,159.70
2023-05-23T04:15:48.660Z,157.66
2023-05-23T04:19:10.058Z,162.73
2023-05-23T04:22:31.051Z,163.77
2023-05-23T04:25:54.864Z,160.75
2023-05-23T04:29:19.261Z,163.89
2023-05-23T04:32:40.548Z,159.56
2023-05-23T04:36:01.967Z,158.92
2023-05-23T04:39:26.617Z,160.33
2023-05-23T04:43:09.700Z,163.72
2023-05-23T04:46:42.605Z,164.53
2023-05-23T04:50:25.238Z,165.07
2023-05-23T04:53:46.194Z,161.02
2023-05-23T04:57:07.576Z,162.08
2023-05-23T05:00:31.973Z,157.44
2023-05-23T05:03:55.005Z,161.27
2023-05-23T05:07:16.544Z,174.20
2023-05-23T05:10:44.705Z,180.08
2023-05-23T05:14:19.552Z,180.18
2023-05-23T05:17:43.525Z,170.49
2023-05-23T05:21:08.489Z,167.97
2023-05-23T05:24:32.104Z,171.72
2023-05-23T05:27:53.437Z,176.08
2023-05-23T05:31:05.578Z,156.00
2023-05-23T05:34:17.175Z,155.37
2023-05-23T05:37:25.198Z,154.67
2023-05-23T05:40:31.305Z,157.12
2023-05-23T05:43:38.108Z,152.30
2023-05-23T05:46:44.200Z,152.12
2023-05-23T05:50:10.984Z,151.74
2023-05-23T05:53:32.190Z,146.09
2023-05-23T05:56:53.473Z,150.47
2023-05-23T06:00:19.427Z,143.18
2023-05-23T06:03:40.668Z,154.78
2023-05-23T06:07:04.313Z,147.31
2023-05-23T06:10:13.424Z,145.59
2023-05-23T06:13:19.548Z,142.33
2023-05-23T06:16:31.465Z,139.30
2023-05-23T06:19:39.051Z,140.20
2023-05-23T06:22:48.637Z,140.76
2023-05-23T06:25:56.630Z,147.07
2023-05-23T06:29:17.527Z,143.03
2023-05-23T06:32:38.495Z,139.63
2023-05-23T06:36:00.608Z,151.00
2023-05-23T06:39:28.564Z,153.80
2023-05-23T06:42:49.748Z,147.75
2023-05-23T06:46:19.764Z,134.71
2023-05-23T06:49:26.193Z,153.03
2023-05-23T06:52:32.876Z,180.03
2023-05-23T06:55:42.980Z,202.77
2023-05-23T06:58:53.025Z,181.79
2023-05-23T07:01:59.154Z,176.38
2023-05-23T07:05:07.160Z,182.38
2023-05-23T07:08:39.305Z,259.02
2023-05-23T07:11:53.663Z,234.28
2023-05-23T07:15:00.382Z,178.17
2023-05-23T07:18:09.384Z,188.13
2023-05-23T07:21:15.611Z,204.94
2023-05-23T07:24:23.902Z,162.84
2023-05-23T07:27:36.600Z,144.09
2023-05-23T07:30:45.104Z,140.19
2023-05-23T07:33:55.401Z,139.99
2023-05-23T07:37:10.376Z,139.22
2023-05-23T07:40:21.837Z,135.08
2023-05-23T07:43:31.330Z,137.38
2023-05-23T07:46:37.396Z,139.93
2023-05-23T07:49:44.911Z,133.75
2023-05-23T07:52:52.321Z,132.47
2023-05-23T07:56:05.268Z,131.72
2023-05-23T07:59:18.663Z,131.01
2023-05-23T08:02:29.360Z,109.10
2023-05-23T08:05:36.381Z,110.12
2023-05-23T08:08:44.064Z,115.61
2023-05-23T08:11:50.596Z,109.95
2023-05-23T08:15:01.010Z,120.64
2023-05-23T08:18:19.269Z,118.33
2023-05-23T08:21:27.391Z,118.11
2023-05-23T08:24:34.571Z,112.32
2023-05-23T08:27:45.106Z,99.33
2023-05-23T08:31:13.503Z,105.05
2023-05-23T08:34:20.514Z,104.42
2023-05-23T08:37:27.617Z,115.26
2023-05-23T08:40:54.614Z,113.86
2023-05-23T08:44:17.979Z,114.76
2023-05-23T08:47:50.993Z,114.28
2023-05-23T08:51:20.324Z,120.65
2023-05-23T08:54:29.849Z,124.69
2023-05-23T08:57:37.497Z,115.99
2023-05-23T09:01:00.203Z,110.36
2023-05-23T09:04:16.023Z,113.67
2023-05-23T09:07:37.530Z,118.54
2023-05-23T09:10:44.830Z,108.16
2023-05-23T09:13:53.754Z,110.91
2023-05-23T09:17:22.878Z,95.74
2023-05-23T09:20:36.555Z,96.91
2023-05-23T09:23:48.581Z,91.56
2023-05-23T09:26:56.560Z,91.11
2023-05-23T09:30:18.716Z,97.72
2023-05-23T09:33:27.530Z,109.26
2023-05-23T09:36:37.923Z,99.65
2023-05-23T09:39:51.312Z,104.01
2023-05-23T09:43:12.668Z,96.09
2023-05-23T09:46:19.985Z,92.17
2023-05-23T09:49:26.146Z,91.60
2023-05-23T09:52:41.382Z,87.72
2023-05-23T09:55:47.395Z,96.18
2023-05-23T09:58:57.249Z,96.90
2023-05-23T10:02:09.935Z,88.12
2023-05-23T10:05:36.618Z,90.79
2023-05-23T10:08:52.361Z,89.34
2023-05-23T10:12:47.188Z,90.69
2023-05-23T10:15:54.870Z,87.31
2023-05-23T10:19:12.094Z,82.17
2023-05-23T10:22:26.590Z,85.96
2023-05-23T10:25:38.488Z,79.84
2023-05-23T10:28:46.007Z,83.03
2023-05-23T10:31:54.977Z,76.55
2023-05-23T10:35:11.458Z,78.01
2023-05-23T10:38:39.081Z,74.34
2023-05-23T10:41:59.533Z,76.91
2023-05-23T10:45:21.103Z,73.15
2023-05-23T10:48:45.008Z,76.99
2023-05-23T10:51:54.248Z,75.58
2023-05-23T10:55:00.253Z,71.72
2023-05-23T10:58:20.834Z,71.31
2023-05-23T11:01:27.970Z,71.97
2023-05-23T11:04:35.213Z,77.82
2023-05-23T11:07:41.141Z,78.99
2023-05-23T11:11:04.084Z,80.34
2023-05-23T11:14:12.811Z,82.22
2023-05-23T11:17:35.444Z,80.80
2023-05-23T11:20:42.146Z,79.10
2023-05-23T11:23:49.224Z,80.85
2023-05-23T11:27:11.018Z,77.77
2023-05-23T11:30:24.015Z,83.93
2023-05-23T11:33:42.090Z,76.22
2023-05-23T11:36:55.912Z,82.93
2023-05-23T11:40:09.135Z,73.45
2023-05-23T11:43:36.737Z,78.54
2023-05-23T11:47:03.842Z,74.99
2023-05-23T11:50:12.651Z,78.35
2023-05-23T11:53:22.077Z,76.61
2023-05-23T11:56:29.309Z,80.29
2023-05-23T11:59:35.534Z,85.54
2023-05-23T12:02:50.316Z,84.13
2023-05-23T12:06:14.251Z,82.99
2023-05-23T12:09:35.608Z,84.79
2023-05-23T12:12:57.197Z,86.03
2023-05-23T12:16:20.081Z,87.43
2023-05-23T12:19:48.824Z,87.60
2023-05-23T12:23:10.696Z,90.07
2023-05-23T12:26:18.350Z,91.39
2023-05-23T12:29:34.841Z,93.01
2023-05-23T12:32:46.447Z,95.38
2023-05-23T12:35:56.997Z,95.97
2023-05-23T12:39:07.985Z,103.34
2023-05-23T12:42:15.747Z,107.27
2023-05-23T12:45:25.904Z,106.28
2023-05-23T12:48:56.599Z,98.25
2023-05-23T12:52:06.062Z,96.43
2023-05-23T12:55:13.861Z,89.45
2023-05-23T12:58:20.541Z,89.90
2023-05-23T13:01:26.766Z,90.84
2023-05-23T13:04:33.639Z,90.84
2023-05-23T13:07:59.776Z,88.49
2023-05-23T13:11:07.309Z,92.96
2023-05-23T13:14:16.462Z,94.26
2023-05-23T13:17:23.535Z,94.89
2023-05-23T13:20:30.999Z,87.53
2023-05-23T13:23:41.188Z,86.40
2023-05-23T13:26:47.347Z,76.59
2023-05-23T13:29:54.243Z,73.29
2023-05-23T13:33:00.534Z,66.67
2023-05-23T13:36:10.095Z,68.36
2023-05-23T13:39:19.919Z,61.66
2023-05-23T13:42:27.370Z,61.70
2023-05-23T13:45:34.346Z,59.98
2023-05-23T13:48:41.262Z,57.65
2023-05-23T13:51:47.400Z,57.41
2023-05-23T13:55:12.381Z,56.12
2023-05-23T13:58:33.421Z,49.50
2023-05-23T14:01:40.260Z,47.81
2023-05-23T14:04:46.337Z,42.95
2023-05-23T14:07:55.281Z,41.94
2023-05-23T14:11:05.677Z,39.12
2023-05-23T14:14:12.879Z,36.70
2023-05-23T14:17:19.270Z,38.51
2023-05-23T14:20:26.715Z,37.67
2023-05-23T14:23:32.814Z,43.32
2023-05-23T14:26:42.360Z,45.66
2023-05-23T14:29:49.274Z,47.73
2023-05-23T14:32:56.239Z,43.84
2023-05-23T14:36:05.150Z,45.15
2023-05-23T14:39:11.989Z,48.31
2023-05-23T14:42:20.531Z,45.46
2023-05-23T14:45:27.747Z,50.02
2023-05-23T14:48:33.906Z,49.52
2023-05-23T14:51:47.526Z,49.71
2023-05-23T14:55:04.133Z,54.51
2023-05-23T14:58:28.094Z,63.70
2023-05-23T15:01:37.284Z,64.94
2023-05-23T15:04:45.055Z,71.40
2023-05-23T15:07:52.208Z,71.42
2023-05-23T15:11:01.281Z,75.62
2023-05-23T15:14:32.493Z,81.60
2023-05-23T15:17:39.233Z,77.86
2023-05-23T15:20:46.578Z,82.06
2023-05-23T15:23:52.572Z,81.29
2023-05-23T15:27:19.441Z,84.74
2023-05-23T15:30:29.460Z,85.61
2023-05-23T15:33:36.323Z,90.04
2023-05-23T15:36:57.250Z,87.44
2023-05-23T15:40:04.416Z,87.19
2023-05-23T15:43:10.356Z,86.41
2023-05-23T15:46:19.824Z,86.09
2023-05-23T15:49:27.261Z,84.67
2023-05-23T15:52:35.007Z,80.56
2023-05-23T15:55:45.260Z,77.11
2023-05-23T15:58:52.320Z,81.63
2023-05-23T16:02:03.377Z,78.05
2023-05-23T16:05:11.407Z,83.76
2023-05-23T16:08:17.448Z,82.87
2023-05-23T16:11:26.711Z,84.50
2023-05-23T16:14:49.267Z,89.30
2023-05-23T16:18:21.223Z,90.46
2023-05-23T16:21:51.601Z,80.98
2023-05-23T16:25:14.324Z,84.17
2023-05-23T16:28:35.508Z,78.02
2023-05-23T16:31:56.498Z,85.74
2023-05-23T16:35:20.250Z,84.60
2023-05-23T16:38:41.257Z,87.45
2023-05-23T16:42:02.379Z,99.38
2023-05-23T16:45:23.603Z,110.15
2023-05-23T16:48:44.607Z,111.58
2023-05-23T16:51:54.789Z,111.40
2023-05-23T16:55:01.784Z,118.59
2023-05-23T16:58:17.002Z,111.04
2023-05-23T17:01:27.910Z,111.61
2023-05-23T17:04:35.396Z,109.68
2023-05-23T17:07:44.148Z,97.59
2023-05-23T17:11:06.419Z,120.62
2023-05-23T17:14:27.753Z,126.14
2023-05-23T17:17:49.263Z,100.99
2023-05-23T17:21:10.251Z,91.25
2023-05-23T17:24:33.907Z,95.94
2023-05-23T17:27:56.180Z,97.82
2023-05-23T17:31:28.929Z,102.45
2023-05-23T17:34:51.654Z,101.01
2023-05-23T17:38:14.674Z,102.27
2023-05-23T17:41:38.329Z,96.84
2023-05-23T17:44:46.621Z,94.32
2023-05-23T17:47:53.583Z,100.98
2023-05-23T17:51:00.545Z,97.36
2023-05-23T17:54:07.376Z,101.92
2023-05-23T17:57:19.990Z,247.04
2023-05-23T18:00:26.251Z,99.23
2023-05-23T18:03:42.778Z,94.04
2023-05-23T18:07:05.092Z,89.87
2023-05-23T18:10:26.211Z,91.93
2023-05-23T18:13:49.753Z,92.25
2023-05-23T18:17:13.216Z,96.07
2023-05-23T18:20:34.272Z,96.83
2023-05-23T18:23:55.125Z,104.53
2023-05-23T18:27:16.270Z,106.98
2023-05-23T18:30:40.139Z,111.37
2023-05-23T18:34:04.840Z,120.77
2023-05-23T18:37:25.842Z,124.63
2023-05-23T18:40:47.338Z,126.23
2023-05-23T18:44:08.227Z,120.79
2023-05-23T18:47:32.287Z,119.67
2023-05-23T18:50:53.260Z,125.41
2023-05-23T18:54:14.138Z,120.54
2023-05-23T18:57:35.176Z,130.57
2023-05-23T19:00:56.059Z,142.68
2023-05-23T19:04:22.509Z,141.04
2023-05-23T19:07:43.702Z,144.57
2023-05-23T19:10:51.264Z,143.29
2023-05-23T19:13:57.508Z,142.27
2023-05-23T19:17:07.777Z,145.59
2023-05-23T19:20:20.364Z,149.49
2023-05-23T19:23:28.399Z,145.10
2023-05-23T19:26:34.592Z,151.10
2023-05-23T19:29:42.667Z,148.06
2023-05-23T19:33:10.307Z,154.90
2023-05-23T19:36:36.956Z,151.97
2023-05-23T19:40:01.033Z,147.57
2023-05-23T19:43:22.087Z,149.86
2023-05-23T19:46:43.166Z,150.59
2023-05-23T19:50:04.198Z,141.94
2023-05-23T19:53:27.730Z,142.13
2023-05-23T19:56:36.212Z,141.31
2023-05-23T19:59:42.570Z,153.05
2023-05-23T20:02:49.401Z,156.30
2023-05-23T20:05:55.366Z,153.43
2023-05-23T20:09:04.823Z,156.85
2023-05-23T20:12:11.939Z,154.05
2023-05-23T20:15:27.654Z,160.12
2023-05-23T20:18:48.065Z,158.73
2023-05-23T20:22:09.276Z,160.70
2023-05-23T20:25:34.062Z,160.97
2023-05-23T20:28:55.119Z,155.00
2023-05-23T20:32:20.779Z,157.89
2023-05-23T20:35:48.534Z,149.60
2023-05-23T20:39:09.542Z,154.56
2023-05-23T20:42:36.667Z,155.58
2023-05-23T20:45:58.211Z,162.17
2023-05-23T20:49:19.417Z,164.42
2023-05-23T20:52:43.187Z,163.80
2023-05-23T20:56:10.502Z,160.59
2023-05-23T20:59:34.178Z,159.50
2023-05-23T21:02:55.226Z,164.64
2023-05-23T21:06:16.535Z,159.51
2023-05-23T21:09:37.696Z,158.44
2023-05-23T21:13:07.959Z,152.42
2023-05-23T21:16:33.318Z,146.24
2023-05-23T21:19:54.600Z,142.62
2023-05-23T21:23:01.567Z,138.64
2023-05-23T21:26:10.935Z,131.68
2023-05-23T21:29:17.774Z,129.32
2023-05-23T21:32:26.522Z,123.55
2023-05-23T21:35:33.303Z,124.59
2023-05-23T21:38:40.865Z,122.71
2023-05-23T21:42:01.877Z,118.59
2023-05-23T21:45:22.902Z,121.08
2023-05-23T21:48:55.332Z,122.68
2023-05-23T21:52:16.319Z,122.84
2023-05-23T21:55:37.246Z,120.12
2023-05-23T21:58:58.126Z,123.68
2023-05-23T22:02:20.419Z,124.62
2023-05-23T22:05:43.921Z,125.08
2023-05-23T22:09:10.442Z,120.32
2023-05-23T22:12:31.345Z,123.54
2023-05-23T22:15:52.433Z,124.32
2023-05-23T22:19:18.326Z,126.96
2023-05-23T22:22:41.893Z,129.69
2023-05-23T22:26:09.326Z,132.37
2023-05-23T22:29:37.121Z,134.66
2023-05-23T22:33:05.360Z,131.03
2023-05-23T22:36:31.576Z,134.89
2023-05-23T22:39:55.110Z,135.00
2023-05-23T22:43:16.918Z,135.69
2023-05-23T22:46:39.841Z,138.80
2023-05-23T22:50:01.094Z,137.31
2023-05-23T22:53:22.850Z,141.41
2023-05-23T22:56:46.444Z,142.38
2023-05-23T23:00:12.270Z,137.42
2023-05-23T23:03:33.357Z,138.44
2023-05-23T23:06:55.092Z,142.96
2023-05-23T23:10:16.204Z,140.14
2023-05-23T23:13:39.933Z,140.95
2023-05-23T23:17:01.203Z,139.55
2023-05-23T23:20:22.933Z,146.27
2023-05-23T23:23:44.010Z,146.06
2023-05-23T23:27:04.957Z,150.61
2023-05-23T23:30:29.376Z,151.59
2023-05-23T23:33:51.024Z,160.21
2023-05-23T23:37:11.947Z,161.82
2023-05-23T23:40:33.051Z,159.88
2023-05-23T23:43:56.327Z,170.97
2023-05-23T23:47:20.115Z,180.61
2023-05-23T23:50:27.710Z,179.36
2023-05-23T23:53:33.960Z,178.96
2023-05-23T23:56:40.806Z,187.31
2023-05-23T23:59:49.299Z,189.71
